Time;durP1;ratioP1;P1;durP2;ratioP2;P2;SDS_P1;SDS_P2;PMS_P1;PMS_P2;Temp;Humidity;BMP_temperature;BMP_pressure;BME280_temperature;BME280_humidity;BME280_pressure;Samples;Min_cycle;Max_cycle;Signal;HPM_P1;HPM_P2
2022/05/28 00:02:27;;;;;;;4.78;2.30;;;11.10;64.00;;;;;;5065103;28;20435;-67
2022/05/28 00:04:55;;;;;;;4.78;2.08;;;11.10;64.20;;;;;;5066430;28;20443;-67
2022/05/28 00:07:21;;;;;;;5.93;2.10;;;11.10;64.40;;;;;;5065828;28;20411;-67
2022/05/28 00:09:48;;;;;;;6.40;2.27;;;11.10;64.50;;;;;;5066802;28;20480;-67
2022/05/28 00:12:15;;;;;;;5.30;2.10;;;11.00;64.60;;;;;;5069598;28;20984;-67
2022/05/28 00:14:41;;;;;;;6.70;2.10;;;11.10;64.70;;;;;;5067319;28;20521;-67
2022/05/28 00:17:08;;;;;;;5.90;2.30;;;11.00;65.00;;;;;;5064810;28;20427;-67
2022/05/28 00:19:34;;;;;;;6.07;2.35;;;11.00;65.10;;;;;;5067184;28;20423;-67
2022/05/28 00:22:02;;;;;;;6.35;1.98;;;11.00;65.20;;;;;;5065841;28;21028;-67
2022/05/28 00:24:29;;;;;;;5.50;2.30;;;11.00;65.40;;;;;;5066374;28;20493;-67
2022/05/28 00:26:56;;;;;;;7.72;2.60;;;10.90;65.50;;;;;;5065865;28;20496;-68
2022/05/28 00:29:22;;;;;;;6.65;2.53;;;10.90;65.60;;;;;;5066106;28;20904;-67
2022/05/28 00:31:49;;;;;;;6.87;2.40;;;10.90;65.70;;;;;;5066082;28;20422;-67
2022/05/28 00:34:16;;;;;;;6.60;2.20;;;10.90;65.80;;;;;;5066674;28;20416;-67
2022/05/28 00:36:42;;;;;;;6.68;2.60;;;10.80;65.80;;;;;;5064959;28;20527;-67
2022/05/28 00:39:10;;;;;;;6.63;2.40;;;10.80;65.80;;;;;;5066367;28;20485;-68
2022/05/28 00:41:37;;;;;;;7.03;2.33;;;10.90;66.00;;;;;;5066387;28;20423;-67
2022/05/28 00:44:05;;;;;;;9.45;2.47;;;10.90;65.90;;;;;;5065984;28;20522;-67
2022/05/28 00:46:32;;;;;;;6.07;2.20;;;10.90;65.70;;;;;;5063757;28;20488;-67
2022/05/28 00:49:02;;;;;;;6.45;2.67;;;11.00;65.80;;;;;;5065763;28;20465;-68
2022/05/28 00:51:32;;;;;;;7.15;3.00;;;11.00;65.70;;;;;;5065859;28;20427;-67
2022/05/28 00:54:01;;;;;;;8.27;2.80;;;11.10;65.50;;;;;;5065953;28;20407;-67
2022/05/28 00:56:29;;;;;;;7.93;2.85;;;11.10;65.30;;;;;;5065299;28;20423;-67
2022/05/28 00:58:56;;;;;;;6.18;2.20;;;11.00;65.30;;;;;;5065422;28;20408;-67
2022/05/28 01:01:26;;;;;;;5.82;2.60;;;11.00;65.40;;;;;;5064556;28;20428;-67
2022/05/28 01:04:02;;;;;;;4.43;2.40;;;11.10;65.50;;;;;;5064881;28;20837;-67
2022/05/28 01:06:35;;;;;;;5.97;2.50;;;11.10;65.50;;;;;;5065190;28;20445;-69
2022/05/28 01:09:07;;;;;;;6.30;2.20;;;11.10;65.30;;;;;;5069442;28;20404;-67
2022/05/28 01:11:41;;;;;;;6.90;2.45;;;11.10;65.30;;;;;;5069690;28;20435;-67
2022/05/28 01:14:14;;;;;;;5.63;2.00;;;11.10;65.50;;;;;;5068931;28;20570;-67
2022/05/28 01:16:45;;;;;;;5.53;2.70;;;11.10;65.20;;;;;;5066801;28;20431;-68
2022/05/28 01:19:20;;;;;;;5.03;2.30;;;11.10;64.90;;;;;;5065471;28;20466;-67
2022/05/28 01:21:52;;;;;;;5.57;2.05;;;11.10;64.90;;;;;;5065378;28;20476;-68
2022/05/28 01:24:28;;;;;;;6.15;2.35;;;11.20;65.40;;;;;;5064787;28;20435;-67
2022/05/28 01:27:00;;;;;;;5.90;2.30;;;11.20;64.30;;;;;;5063756;28;20500;-67
2022/05/28 01:29:31;;;;;;;6.65;2.30;;;11.30;65.30;;;;;;5064921;28;20446;-67
2022/05/28 01:32:00;;;;;;;5.80;2.90;;;11.30;64.20;;;;;;5064826;28;20860;-67
2022/05/28 01:34:29;;;;;;;5.45;2.60;;;11.30;64.20;;;;;;5063551;28;20423;-67
2022/05/28 01:36:57;;;;;;;6.20;2.17;;;11.30;64.20;;;;;;5050557;28;20494;-68
2022/05/28 01:39:24;;;;;;;7.93;2.60;;;11.40;64.00;;;;;;5062724;28;20510;-68
2022/05/28 01:41:51;;;;;;;8.20;2.43;;;11.30;63.90;;;;;;5063844;28;20415;-67
2022/05/28 01:44:21;;;;;;;6.45;2.50;;;11.40;64.10;;;;;;5065737;28;20736;-67
2022/05/28 01:46:49;;;;;;;6.50;2.10;;;11.30;64.10;;;;;;5065577;28;20430;-67
2022/05/28 01:49:18;;;;;;;6.75;2.88;;;11.30;64.20;;;;;;5066336;28;20504;-68
2022/05/28 01:51:49;;;;;;;6.87;2.70;;;11.30;64.20;;;;;;5065072;28;20445;-68
2022/05/28 01:54:19;;;;;;;7.97;2.67;;;11.30;64.50;;;;;;5065840;28;20911;-67
2022/05/28 01:56:50;;;;;;;7.37;2.30;;;11.30;64.60;;;;;;5063917;28;20504;-67
2022/05/28 01:59:21;;;;;;;7.72;2.42;;;11.20;64.70;;;;;;5065056;28;20499;-67
2022/05/28 02:01:48;;;;;;;6.25;2.20;;;11.30;64.70;;;;;;5064298;28;20488;-68
2022/05/28 02:04:14;;;;;;;5.75;2.50;;;11.20;64.80;;;;;;5064048;28;20447;-68
2022/05/28 02:06:42;;;;;;;5.78;2.38;;;11.20;64.90;;;;;;5063210;28;20431;-67
2022/05/28 02:09:12;;;;;;;7.10;2.55;;;11.30;65.10;;;;;;5064246;28;20446;-67
2022/05/28 02:11:50;;;;;;;8.95;2.28;;;11.20;64.80;;;;;;5065905;28;20423;-68
2022/05/28 02:14:26;;;;;;;6.37;2.50;;;11.20;65.10;;;;;;5066597;28;20419;-67
2022/05/28 02:16:57;;;;;;;4.83;2.47;;;11.20;65.10;;;;;;5064872;28;20908;-67
2022/05/28 02:19:29;;;;;;;6.22;2.30;;;11.20;65.30;;;;;;5067143;28;20449;-69
2022/05/28 02:22:02;;;;;;;5.17;2.20;;;11.10;65.30;;;;;;5065893;28;20488;-69
2022/05/28 02:24:35;;;;;;;5.72;2.30;;;11.10;65.60;;;;;;5067331;28;20424;-67
2022/05/28 02:27:06;;;;;;;7.65;2.58;;;11.10;65.50;;;;;;5066085;28;20427;-67
2022/05/28 02:29:34;;;;;;;5.30;2.65;;;11.10;65.70;;;;;;5067317;28;20892;-69
2022/05/28 02:32:13;;;;;;;5.88;2.38;;;11.10;65.50;;;;;;5068332;28;20560;-69
2022/05/28 02:34:40;;;;;;;6.70;2.83;;;11.20;65.60;;;;;;5071146;28;20530;-69
2022/05/28 02:37:07;;;;;;;7.43;2.50;;;11.20;65.50;;;;;;5065540;28;20476;-69
2022/05/28 02:39:34;;;;;;;5.28;2.45;;;11.20;65.70;;;;;;5066048;28;20495;-68
2022/05/28 02:42:00;;;;;;;5.50;2.70;;;11.20;65.60;;;;;;5064988;28;20827;-69
2022/05/28 02:44:28;;;;;;;6.07;2.83;;;11.20;65.70;;;;;;5064366;28;20431;-69
2022/05/28 02:46:56;;;;;;;5.65;2.60;;;11.20;65.70;;;;;;5060924;28;20508;-68
2022/05/28 02:49:25;;;;;;;5.78;2.60;;;11.20;65.60;;;;;;5064008;28;20483;-68
2022/05/28 02:51:52;;;;;;;6.38;2.22;;;11.20;65.50;;;;;;5064034;28;20511;-71
2022/05/28 02:54:19;;;;;;;7.40;2.60;;;11.20;65.50;;;;;;5067531;28;20412;-68
2022/05/28 02:56:46;;;;;;;6.00;2.47;;;11.30;65.50;;;;;;5067273;28;20419;-68
2022/05/28 02:59:13;;;;;;;7.70;2.80;;;11.30;65.50;;;;;;5067776;28;20831;-68
2022/05/28 03:01:40;;;;;;;7.13;2.30;;;11.30;65.60;;;;;;5066551;28;20497;-69
2022/05/28 03:04:09;;;;;;;6.60;2.53;;;11.20;65.70;;;;;;5067756;28;20904;-69
2022/05/28 03:06:37;;;;;;;8.18;3.17;;;11.30;66.00;;;;;;5067715;28;20461;-70
2022/05/28 03:09:04;;;;;;;9.48;2.70;;;11.20;66.00;;;;;;5074145;28;20422;-69
2022/05/28 03:11:31;;;;;;;8.23;2.80;;;11.20;66.20;;;;;;5071791;28;20472;-69
2022/05/28 03:13:58;;;;;;;7.82;2.80;;;11.20;66.20;;;;;;5072261;28;20415;-69
2022/05/28 03:16:25;;;;;;;4.40;2.50;;;11.10;66.50;;;;;;5067068;28;20447;-67
2022/05/28 03:18:51;;;;;;;9.30;3.10;;;11.10;66.60;;;;;;5067731;28;20858;-68
2022/05/28 03:21:20;;;;;;;7.75;2.75;;;11.20;66.60;;;;;;5067403;28;20873;-68
2022/05/28 03:23:48;;;;;;;9.13;2.97;;;11.20;66.70;;;;;;5067238;28;20435;-68
2022/05/28 03:26:17;;;;;;;6.78;3.05;;;11.20;66.70;;;;;;5066684;28;20419;-68
2022/05/28 03:28:44;;;;;;;9.40;3.22;;;11.30;66.80;;;;;;5066067;28;20439;-69
2022/05/28 03:31:10;;;;;;;5.50;2.67;;;11.20;66.80;;;;;;5066920;28;20491;-68
2022/05/28 03:33:37;;;;;;;10.43;3.20;;;11.30;66.80;;;;;;5066828;28;20426;-69
2022/05/28 03:36:05;;;;;;;7.18;2.70;;;11.30;66.80;;;;;;5066657;28;20420;-69
2022/05/28 03:38:34;;;;;;;10.93;4.37;;;11.30;67.00;;;;;;5066877;28;20486;-68
2022/05/28 03:41:01;;;;;;;9.40;2.85;;;11.30;67.00;;;;;;5066978;28;20415;-69
2022/05/28 03:43:28;;;;;;;5.60;2.67;;;11.30;67.10;;;;;;5066048;28;20844;-68
2022/05/28 03:45:55;;;;;;;6.07;2.97;;;11.30;67.10;;;;;;5057824;28;20427;-69
2022/05/28 03:48:23;;;;;;;7.00;2.90;;;11.30;67.40;;;;;;5066497;28;20486;-68
2022/05/28 03:50:50;;;;;;;10.03;3.00;;;11.30;67.70;;;;;;5067032;28;20415;-68
2022/05/28 03:53:17;;;;;;;7.55;3.33;;;11.20;68.10;;;;;;5066730;28;20473;-68
2022/05/28 03:55:45;;;;;;;7.82;3.20;;;11.20;68.40;;;;;;5067059;28;20416;-68
2022/05/28 03:58:12;;;;;;;8.05;2.92;;;11.20;68.70;;;;;;5066111;28;20896;-68
2022/05/28 04:00:39;;;;;;;7.93;3.50;;;11.20;68.80;;;;;;5064395;28;20431;-68
2022/05/28 04:03:06;;;;;;;7.03;3.10;;;11.20;69.00;;;;;;5060094;28;20420;-68
2022/05/28 04:05:34;;;;;;;7.60;3.17;;;11.20;69.10;;;;;;5065804;28;20477;-69
2022/05/28 04:08:00;;;;;;;7.22;3.47;;;11.20;69.30;;;;;;5066406;28;20919;-68
2022/05/28 04:10:27;;;;;;;6.18;3.20;;;11.10;69.60;;;;;;5066853;28;20874;-69
2022/05/28 04:12:55;;;;;;;6.05;3.00;;;11.10;69.80;;;;;;5066663;28;20416;-68
2022/05/28 04:15:22;;;;;;;8.95;3.20;;;11.00;70.00;;;;;;5065177;28;21098;-68
2022/05/28 04:17:48;;;;;;;8.77;3.30;;;11.00;70.20;;;;;;5065918;28;20486;-68
2022/05/28 04:20:16;;;;;;;8.77;3.90;;;11.00;70.40;;;;;;5066562;28;20420;-68
2022/05/28 04:22:43;;;;;;;6.05;3.20;;;11.00;70.60;;;;;;5056364;28;20433;-69
2022/05/28 04:25:10;;;;;;;6.50;3.30;;;11.00;70.60;;;;;;5066444;28;20877;-68
2022/05/28 04:27:40;;;;;;;6.40;3.50;;;11.00;70.50;;;;;;5066211;28;20455;-68
2022/05/28 04:30:10;;;;;;;7.05;3.22;;;11.10;71.30;;;;;;5066152;28;20569;-69
2022/05/28 04:32:36;;;;;;;7.68;3.40;;;11.10;70.40;;;;;;5065896;28;20423;-68
2022/05/28 04:35:03;;;;;;;8.43;3.47;;;11.20;70.40;;;;;;5066466;28;20415;-68
2022/05/28 04:37:30;;;;;;;6.53;2.85;;;11.20;70.30;;;;;;5065875;28;20415;-68
2022/05/28 04:39:57;;;;;;;7.10;3.60;;;11.30;70.70;;;;;;5066544;28;20420;-69
2022/05/28 04:42:23;;;;;;;8.07;3.60;;;11.30;70.70;;;;;;5066725;28;20856;-69
2022/05/28 04:44:50;;;;;;;9.55;3.33;;;11.30;71.00;;;;;;5064262;28;20510;-69
2022/05/28 04:47:18;;;;;;;9.18;3.53;;;11.40;71.10;;;;;;5065424;28;20416;-68
2022/05/28 04:49:45;;;;;;;9.45;3.40;;;11.40;71.00;;;;;;5065928;28;20423;-71
2022/05/28 04:52:11;;;;;;;8.85;3.67;;;11.40;71.30;;;;;;5066009;28;20449;-69
2022/05/28 04:54:38;;;;;;;8.80;3.90;;;11.50;71.40;;;;;;5065953;28;20490;-69
2022/05/28 04:57:05;;;;;;;9.80;4.05;;;11.60;71.40;;;;;;5063570;28;21043;-69
2022/05/28 04:59:32;;;;;;;7.88;3.28;;;11.70;71.40;;;;;;5056853;28;20488;-69
2022/05/28 05:01:58;;;;;;;9.20;3.37;;;11.70;71.40;;;;;;5064487;28;20589;-69
2022/05/28 05:04:26;;;;;;;8.75;3.70;;;11.70;71.60;;;;;;5064874;28;20435;-68
2022/05/28 05:06:53;;;;;;;7.20;3.33;;;11.60;71.80;;;;;;5064958;28;20420;-68
2022/05/28 05:09:19;;;;;;;9.50;3.60;;;11.60;72.50;;;;;;5064854;28;20423;-69
2022/05/28 05:11:46;;;;;;;6.47;3.30;;;11.60;72.60;;;;;;5064949;28;20473;-68
2022/05/28 05:14:13;;;;;;;8.85;4.13;;;11.50;72.60;;;;;;5065371;28;20403;-69
2022/05/28 05:16:39;;;;;;;10.50;4.20;;;11.50;72.70;;;;;;5062310;28;20484;-69
2022/05/28 05:19:06;;;;;;;6.97;3.47;;;11.50;73.10;;;;;;5064768;28;20423;-69
2022/05/28 05:21:34;;;;;;;6.45;3.60;;;11.50;73.20;;;;;;5065075;28;20489;-69
2022/05/28 05:24:01;;;;;;;9.18;4.03;;;11.60;73.00;;;;;;5065258;28;20419;-68
2022/05/28 05:26:28;;;;;;;9.05;3.50;;;11.60;72.30;;;;;;5072958;22;20926;-67
2022/05/28 05:28:55;;;;;;;7.03;3.78;;;11.60;73.00;;;;;;5026494;28;20462;-66
2022/05/28 05:31:22;;;;;;;8.70;4.20;;;11.70;73.00;;;;;;5027399;28;20454;-66
2022/05/28 05:33:49;;;;;;;9.77;4.22;;;11.70;72.80;;;;;;5028267;28;20758;-68
2022/05/28 05:36:16;;;;;;;9.00;4.10;;;11.70;72.50;;;;;;5027668;28;20692;-68
2022/05/28 05:38:44;;;;;;;6.47;3.88;;;11.80;73.00;;;;;;5028591;28;20418;-67
2022/05/28 05:41:12;;;;;;;7.32;3.80;;;11.80;72.90;;;;;;5028272;28;20571;-67
2022/05/28 05:43:38;;;;;;;11.03;4.10;;;11.90;72.90;;;;;;5027001;28;20484;-66
2022/05/28 05:46:05;;;;;;;10.43;4.50;;;11.90;73.20;;;;;;5027540;28;20439;-68
2022/05/28 05:48:32;;;;;;;9.85;3.72;;;11.90;73.20;;;;;;5008369;28;20420;-68
2022/05/28 05:51:05;;;;;;;7.72;3.60;;;11.90;73.50;;;;;;5008398;28;20421;-66
2022/05/28 05:53:32;;;;;;;7.53;3.80;;;12.00;74.60;;;;;;5008514;28;20425;-67
2022/05/28 05:56:00;;;;;;;8.35;3.72;;;12.10;73.20;;;;;;5009413;28;20960;-67
2022/05/28 05:58:26;;;;;;;8.25;3.97;;;12.20;73.40;;;;;;5025910;28;20434;-67
2022/05/28 06:00:53;;;;;;;8.05;3.17;;;12.30;73.40;;;;;;5034546;28;20462;-67
2022/05/28 06:03:20;;;;;;;8.55;3.15;;;12.40;72.90;;;;;;5048407;28;20421;-67
2022/05/28 06:05:46;;;;;;;6.22;3.50;;;12.50;72.80;;;;;;5048183;28;21071;-66
2022/05/28 06:08:15;;;;;;;7.28;3.15;;;12.50;72.30;;;;;;5048638;28;20413;-66
2022/05/28 06:10:42;;;;;;;9.23;3.40;;;12.60;71.70;;;;;;5027273;28;20524;-68
2022/05/28 06:13:10;;;;;;;8.15;3.45;;;12.70;71.40;;;;;;5028043;28;20422;-67
2022/05/28 06:15:37;;;;;;;6.47;2.65;;;12.70;72.00;;;;;;5027841;28;20484;-68
2022/05/28 06:18:04;;;;;;;8.20;3.50;;;12.70;71.00;;;;;;5027484;28;20415;-67
2022/05/28 06:20:30;;;;;;;8.43;3.60;;;12.80;71.40;;;;;;5027777;28;20418;-66
2022/05/28 06:22:57;;;;;;;7.72;3.10;;;12.80;71.60;;;;;;5027713;28;20506;-66
2022/05/28 06:25:24;;;;;;;7.72;2.92;;;12.90;71.30;;;;;;5026759;28;20437;-68
2022/05/28 06:27:51;;;;;;;6.22;2.97;;;12.90;70.70;;;;;;5026942;28;20418;-66
2022/05/28 06:30:19;;;;;;;7.97;3.30;;;12.90;69.60;;;;;;5026759;28;20967;-68
2022/05/28 06:32:46;;;;;;;4.38;2.50;;;13.00;70.20;;;;;;5027424;28;20418;-66
2022/05/28 06:35:13;;;;;;;7.35;3.10;;;13.20;69.50;;;;;;5026177;28;20439;-66
2022/05/28 06:37:39;;;;;;;7.28;2.90;;;13.30;68.70;;;;;;5027142;28;20423;-66
2022/05/28 06:40:07;;;;;;;8.18;3.42;;;13.30;67.80;;;;;;5026545;28;20443;-66
2022/05/28 06:42:34;;;;;;;8.18;3.47;;;13.40;67.60;;;;;;5027470;28;20414;-67
2022/05/28 06:45:01;;;;;;;5.38;2.80;;;13.30;66.40;;;;;;5027506;28;20430;-67
2022/05/28 06:47:30;;;;;;;6.03;2.90;;;13.40;66.90;;;;;;5027568;28;20838;-66
2022/05/28 06:52:41;;;;;;;5.50;2.70;;;13.50;65.70;;;;;;5027261;28;20812;-66
2022/05/28 06:55:08;;;;;;;6.80;2.50;;;13.50;66.10;;;;;;5027242;28;20418;-67
2022/05/28 06:57:35;;;;;;;5.30;2.20;;;13.60;65.90;;;;;;5026761;28;20959;-67
2022/05/28 07:00:02;;;;;;;6.00;2.90;;;13.70;63.60;;;;;;5027316;28;20410;-66
2022/05/28 07:02:30;;;;;;;6.30;2.30;;;13.70;63.60;;;;;;5027426;28;20490;-67
2022/05/28 07:04:56;;;;;;;6.32;2.92;;;13.80;63.70;;;;;;5027199;28;20434;-66
2022/05/28 07:07:23;;;;;;;4.90;2.00;;;13.80;62.60;;;;;;5026089;28;20423;-67
2022/05/28 07:09:49;;;;;;;6.20;2.78;;;13.80;63.70;;;;;;5027323;28;20480;-66
2022/05/28 07:12:16;;;;;;;5.50;3.10;;;13.80;63.50;;;;;;5027340;28;20423;-65
2022/05/28 07:14:43;;;;;;;5.13;2.60;;;13.80;63.40;;;;;;5027395;28;20453;-66
2022/05/28 07:17:09;;;;;;;7.75;2.40;;;13.80;63.60;;;;;;5027065;28;20494;-67
2022/05/28 07:19:37;;;;;;;6.72;2.63;;;13.90;62.20;;;;;;5027182;28;20484;-66
2022/05/28 07:22:04;;;;;;;4.88;2.25;;;13.90;62.20;;;;;;5025451;28;21060;-68
2022/05/28 07:24:31;;;;;;;4.67;2.07;;;13.80;61.80;;;;;;5026932;28;20473;-67
2022/05/28 07:26:58;;;;;;;6.78;2.00;;;13.80;62.00;;;;;;5026464;28;20431;-67
2022/05/28 07:29:24;;;;;;;4.22;1.70;;;13.90;62.70;;;;;;5027509;28;20423;-67
2022/05/28 07:31:51;;;;;;;6.85;2.10;;;14.10;61.50;;;;;;5027544;28;20425;-66
2022/05/28 07:34:18;;;;;;;6.05;2.03;;;14.20;60.80;;;;;;5027066;28;20407;-67
2022/05/28 07:36:48;;;;;;;5.75;1.75;;;14.30;60.20;;;;;;5025351;28;20434;-68
2022/05/28 07:39:14;;;;;;;4.38;1.70;;;14.40;60.00;;;;;;5025030;28;20442;-67
2022/05/28 07:41:41;;;;;;;4.20;1.73;;;14.50;58.60;;;;;;5029654;28;20519;-68
2022/05/28 07:44:08;;;;;;;4.23;1.67;;;14.90;57.30;;;;;;5030471;28;20455;-67
2022/05/28 07:46:34;;;;;;;2.50;1.70;;;15.30;55.40;;;;;;5029858;28;20422;-67
2022/05/28 07:49:03;;;;;;;4.40;1.50;;;15.40;54.70;;;;;;5030447;28;20410;-67
2022/05/28 07:51:30;;;;;;;2.70;1.30;;;15.60;53.80;;;;;;5030475;28;20812;-67
2022/05/28 07:53:58;;;;;;;3.42;1.40;;;15.70;52.80;;;;;;5029269;28;20431;-67
2022/05/28 07:56:25;;;;;;;3.53;1.60;;;15.90;53.40;;;;;;5029950;28;20418;-67
2022/05/28 07:58:54;;;;;;;3.42;1.75;;;16.30;52.80;;;;;;5030422;28;20480;-67
2022/05/28 08:01:22;;;;;;;3.70;1.60;;;16.60;50.70;;;;;;5030708;28;20919;-67
2022/05/28 08:03:49;;;;;;;2.92;1.35;;;17.00;49.50;;;;;;5030990;28;21010;-67
2022/05/28 08:06:17;;;;;;;3.63;1.65;;;17.10;48.90;;;;;;5030252;28;20437;-67
2022/05/28 08:08:43;;;;;;;4.63;1.90;;;17.00;49.10;;;;;;5029938;28;20817;-67
2022/05/28 08:11:11;;;;;;;2.20;1.10;;;17.10;46.70;;;;;;5030524;28;20418;-67
2022/05/28 08:13:38;;;;;;;4.23;1.60;;;17.40;46.50;;;;;;5030411;28;20473;-67
2022/05/28 08:16:06;;;;;;;5.25;1.40;;;17.60;45.90;;;;;;5029698;28;20414;-67
2022/05/28 08:18:32;;;;;;;3.47;1.63;;;17.70;46.20;;;;;;5029997;28;20418;-67
2022/05/28 08:23:45;;;;;;;2.70;1.35;;;18.30;43.60;;;;;;5027847;28;21003;-67
2022/05/28 08:26:15;;;;;;;2.80;1.00;;;18.70;42.60;;;;;;5028910;28;20427;-67
2022/05/28 08:28:42;;;;;;;4.00;1.52;;;19.00;40.90;;;;;;5029765;28;20423;-67
2022/05/28 08:31:09;;;;;;;2.45;1.08;;;19.00;41.90;;;;;;5029849;28;20418;-67
2022/05/28 08:33:36;;;;;;;3.50;1.10;;;19.10;40.10;;;;;;5030709;28;20489;-67
2022/05/28 08:36:04;;;;;;;2.85;1.30;;;19.20;40.30;;;;;;5027383;28;20431;-67
2022/05/28 08:38:31;;;;;;;2.30;1.10;;;19.40;40.30;;;;;;5029008;28;20442;-68
2022/05/28 08:41:04;;;;;;;5.03;1.60;;;19.60;39.70;;;;;;5029424;28;20782;-67
2022/05/28 08:43:34;;;;;;;2.85;1.20;;;19.80;40.10;;;;;;5029640;28;20435;-67
2022/05/28 08:46:02;;;;;;;2.58;1.30;;;20.10;39.50;;;;;;5028874;28;20431;-68
2022/05/28 08:48:35;;;;;;;2.80;1.10;;;20.10;38.70;;;;;;5026070;28;20440;-67
2022/05/28 08:51:06;;;;;;;1.80;1.10;;;19.90;39.20;;;;;;5020607;28;20485;-67
2022/05/28 08:53:38;;;;;;;2.42;1.23;;;19.40;40.00;;;;;;5029231;28;20415;-67
2022/05/28 08:56:06;;;;;;;2.20;1.20;;;19.20;39.80;;;;;;5028793;28;20900;-67
2022/05/28 08:58:35;;;;;;;3.58;1.40;;;18.90;41.40;;;;;;5028810;28;20529;-67
2022/05/28 09:01:06;;;;;;;3.20;0.90;;;18.90;42.30;;;;;;5028883;28;20419;-67
2022/05/28 09:03:44;;;;;;;2.60;1.13;;;19.30;41.60;;;;;;5029199;28;20524;-67
2022/05/28 09:06:14;;;;;;;3.88;1.30;;;19.30;39.60;;;;;;5028666;28;20431;-67
2022/05/28 09:08:43;;;;;;;3.00;1.20;;;18.80;39.40;;;;;;5028824;28;20443;-67
2022/05/28 09:11:14;;;;;;;2.80;1.20;;;18.60;40.60;;;;;;5028842;28;20418;-67
2022/05/28 09:13:44;;;;;;;2.35;1.13;;;18.10;40.90;;;;;;5027896;28;20439;-67
2022/05/28 09:16:21;;;;;;;4.13;1.30;;;17.60;42.40;;;;;;5028213;28;20415;-67
2022/05/28 09:18:50;;;;;;;4.40;1.30;;;17.50;45.60;;;;;;5028635;28;20418;-68
2022/05/28 09:21:17;;;;;;;3.92;1.38;;;18.10;44.10;;;;;;5028956;28;20469;-67
2022/05/28 09:23:47;;;;;;;1.83;1.00;;;18.70;42.10;;;;;;5026878;28;21113;-68
2022/05/28 09:26:17;;;;;;;4.20;1.10;;;19.30;40.30;;;;;;5028010;28;20457;-68
2022/05/28 09:29:00;;;;;;;3.08;1.20;;;19.50;37.90;;;;;;5028517;28;20439;-68
2022/05/28 09:31:44;;;;;;;2.58;0.98;;;19.50;38.70;;;;;;5029079;28;20419;-67
2022/05/28 09:34:23;;;;;;;3.70;1.20;;;19.60;37.50;;;;;;5028855;28;20422;-68
2022/05/28 09:37:00;;;;;;;2.83;0.85;;;19.50;38.10;;;;;;5022282;28;20492;-68
2022/05/28 09:39:39;;;;;;;3.00;1.00;;;19.20;38.50;;;;;;5027438;28;20431;-67
2022/05/28 09:42:18;;;;;;;3.10;1.00;;;19.10;38.30;;;;;;5022552;28;20419;-67
2022/05/28 09:45:00;;;;;;;2.30;0.70;;;19.50;37.80;;;;;;5028824;28;20422;-67
2022/05/28 09:47:27;;;;;;;1.95;0.98;;;20.00;35.10;;;;;;5027850;28;20431;-68
2022/05/28 09:49:56;;;;;;;4.22;1.20;;;20.10;35.10;;;;;;5027612;28;20910;-68
2022/05/28 09:52:27;;;;;;;2.08;0.93;;;19.80;35.00;;;;;;5026888;28;20860;-67
2022/05/28 09:55:10;;;;;;;1.63;0.80;;;19.40;36.80;;;;;;5028504;28;20473;-67
2022/05/28 09:57:45;;;;;;;2.40;0.90;;;19.40;36.40;;;;;;5028276;28;20415;-67
2022/05/28 10:00:15;;;;;;;2.75;0.90;;;19.80;34.40;;;;;;5028492;28;20426;-67
2022/05/28 10:04:28;;;;;;;3.00;0.70;;;20.00;33.00;;;;;;5027772;28;20450;-67
2022/05/28 10:05:33;;;;;;;4.45;1.10;;;20.20;33.40;;;;;;5026044;28;20430;-67
2022/05/28 10:08:09;;;;;;;1.53;0.80;;;20.60;33.10;;;;;;5025129;28;20918;-67
2022/05/28 10:10:38;;;;;;;2.63;0.85;;;20.80;30.10;;;;;;5027788;28;20885;-67
2022/05/28 10:13:09;;;;;;;2.72;0.95;;;20.70;29.80;;;;;;5026416;28;20434;-67
2022/05/28 10:15:39;;;;;;;2.83;0.73;;;20.50;30.00;;;;;;5027315;28;20465;-67
2022/05/28 10:18:13;;;;;;;2.15;0.80;;;20.30;29.50;;;;;;5028531;28;20427;-67
2022/05/28 10:20:40;;;;;;;2.50;0.80;;;20.20;30.00;;;;;;5028846;28;20427;-67
2022/05/28 10:23:14;;;;;;;2.27;1.10;;;20.20;30.50;;;;;;5025892;28;20488;-67
2022/05/28 10:25:47;;;;;;;2.00;0.90;;;20.40;30.50;;;;;;5027832;28;20415;-67
2022/05/28 10:28:14;;;;;;;2.58;0.70;;;20.80;31.80;;;;;;5027949;28;20414;-67
2022/05/28 10:30:43;;;;;;;2.65;0.80;;;21.10;30.50;;;;;;5026802;28;20461;-66
2022/05/28 10:33:15;;;;;;;1.70;0.90;;;21.00;31.60;;;;;;5027825;28;20423;-66
2022/05/28 10:35:42;;;;;;;1.98;0.80;;;20.60;30.40;;;;;;5025000;28;20801;-66
2022/05/28 10:38:15;;;;;;;2.25;0.90;;;19.80;32.50;;;;;;5026585;28;20435;-66
2022/05/28 10:40:48;;;;;;;1.90;0.90;;;19.40;35.10;;;;;;5027822;28;20453;-67
2022/05/28 10:43:24;;;;;;;2.65;1.20;;;19.30;36.50;;;;;;5028011;28;20506;-66
2022/05/28 10:46:01;;;;;;;2.33;1.00;;;19.60;36.20;;;;;;5027287;28;20418;-67
2022/05/28 10:48:35;;;;;;;2.25;1.00;;;20.10;33.00;;;;;;5027453;28;20443;-67
2022/05/28 10:51:15;;;;;;;2.50;1.10;;;20.40;31.30;;;;;;5019761;28;20439;-67
2022/05/28 10:54:04;;;;;;;1.40;0.80;;;20.80;31.60;;;;;;5027443;28;20484;-67
2022/05/28 10:56:52;;;;;;;2.15;0.80;;;21.30;29.70;;;;;;5027341;28;20415;-66
2022/05/28 10:59:45;;;;;;;2.40;1.10;;;21.50;29.50;;;;;;5027605;28;20415;-67
2022/05/28 11:02:33;;;;;;;2.35;1.00;;;20.90;29.50;;;;;;5028037;28;20422;-65
2022/05/28 11:05:09;;;;;;;2.83;1.00;;;20.00;32.00;;;;;;5026689;28;20441;-66
2022/05/28 11:07:51;;;;;;;2.38;1.20;;;20.20;34.50;;;;;;5026951;28;20485;-66
2022/05/28 11:10:32;;;;;;;2.63;0.90;;;20.70;31.60;;;;;;5027724;28;20464;-67
2022/05/28 11:13:27;;;;;;;2.22;0.90;;;20.90;31.00;;;;;;5027854;28;20858;-66
2022/05/28 11:16:04;;;;;;;2.90;1.30;;;21.30;32.40;;;;;;5029765;28;20449;-66
2022/05/28 11:18:48;;;;;;;2.13;0.95;;;21.50;29.70;;;;;;5029222;28;20438;-66
2022/05/28 11:21:31;;;;;;;2.35;0.93;;;21.30;29.60;;;;;;5031043;28;20415;-66
2022/05/28 11:24:24;;;;;;;2.60;1.10;;;20.90;28.90;;;;;;5031755;28;20419;-66
2022/05/28 11:27:01;;;;;;;2.05;1.17;;;20.70;30.20;;;;;;5030443;28;20434;-68
2022/05/28 11:29:47;;;;;;;2.15;1.10;;;20.70;30.70;;;;;;5030831;28;20977;-66
2022/05/28 11:32:18;;;;;;;3.63;1.08;;;20.50;31.00;;;;;;5023886;28;20427;-66
2022/05/28 11:34:52;;;;;;;1.85;0.88;;;20.20;30.30;;;;;;5030572;28;20473;-66
2022/05/28 11:37:22;;;;;;;1.50;0.80;;;20.20;29.30;;;;;;5030106;28;20971;-66
2022/05/28 11:39:57;;;;;;;2.30;0.90;;;20.20;29.50;;;;;;5030395;28;20427;-66
2022/05/28 11:42:31;;;;;;;3.25;1.17;;;20.60;29.90;;;;;;5030862;28;20426;-66
2022/05/28 11:45:02;;;;;;;2.22;0.90;;;20.90;29.50;;;;;;5030914;28;20450;-67
2022/05/28 11:47:40;;;;;;;2.42;0.90;;;21.10;29.00;;;;;;5029344;28;20431;-66
2022/05/28 11:53:05;;;;;;;1.98;0.80;;;20.90;27.90;;;;;;5028782;28;20981;-66
2022/05/28 11:55:35;;;;;;;2.08;1.05;;;20.80;26.90;;;;;;5029451;28;20497;-67
2022/05/28 11:58:05;;;;;;;2.45;1.17;;;20.30;28.50;;;;;;5030296;28;20437;-68
2022/05/28 12:00:35;;;;;;;3.00;1.30;;;19.70;28.90;;;;;;5030683;28;20445;-68
2022/05/28 12:03:13;;;;;;;3.17;1.40;;;19.40;30.40;;;;;;5030243;28;20422;-68
2022/05/28 12:05:44;;;;;;;2.35;0.90;;;19.50;29.70;;;;;;5030296;28;20415;-68
2022/05/28 12:08:27;;;;;;;2.20;0.77;;;20.10;30.20;;;;;;5049326;22;20444;-68
2022/05/28 12:10:57;;;;;;;2.75;1.15;;;20.70;28.00;;;;;;5033990;28;20928;-69
2022/05/28 12:13:32;;;;;;;1.73;1.10;;;21.30;26.40;;;;;;5026230;28;20923;-69
2022/05/28 12:16:25;;;;;;;3.58;1.00;;;20.80;26.50;;;;;;5025671;28;20457;-67
2022/05/28 12:18:57;;;;;;;2.65;1.20;;;20.20;27.80;;;;;;5026641;28;20419;-69
2022/05/28 12:21:27;;;;;;;2.30;0.80;;;20.40;28.00;;;;;;5033670;28;21110;-68
2022/05/28 12:24:07;;;;;;;3.15;1.10;;;20.90;27.80;;;;;;5054183;28;21179;-68
2022/05/28 12:26:56;;;;;;;2.13;0.90;;;21.00;27.40;;;;;;5045028;28;20429;-66
2022/05/28 12:29:37;;;;;;;1.52;0.90;;;20.80;27.40;;;;;;5046518;28;20541;-68
2022/05/28 12:32:16;;;;;;;2.78;1.20;;;19.80;28.90;;;;;;5043959;28;20460;-68
2022/05/28 12:34:52;;;;;;;1.75;0.90;;;19.40;29.30;;;;;;5027164;28;20681;-68
2022/05/28 12:37:25;;;;;;;2.85;1.10;;;18.80;30.00;;;;;;5025540;28;20498;-68
2022/05/28 12:40:04;;;;;;;2.72;1.08;;;18.80;31.00;;;;;;5026113;28;20506;-66
2022/05/28 12:42:31;;;;;;;2.83;1.20;;;19.00;31.30;;;;;;5025285;28;20435;-68
2022/05/28 12:45:10;;;;;;;2.45;1.15;;;19.10;30.90;;;;;;5031551;28;20506;-68
2022/05/28 12:47:38;;;;;;;2.75;1.30;;;19.10;31.40;;;;;;5035099;28;20443;-68
2022/05/28 12:50:13;;;;;;;3.05;1.25;;;19.30;31.30;;;;;;5025294;28;20422;-69
2022/05/28 12:52:51;;;;;;;2.73;1.07;;;19.50;30.50;;;;;;5025202;28;20502;-68
2022/05/28 12:55:29;;;;;;;2.00;0.90;;;19.80;29.70;;;;;;5025413;28;20924;-68
2022/05/28 12:58:04;;;;;;;3.20;1.30;;;20.00;29.00;;;;;;5025080;28;20406;-68
2022/05/28 13:00:37;;;;;;;3.60;0.90;;;20.00;29.20;;;;;;5043638;28;20441;-67
2022/05/28 13:03:06;;;;;;;3.58;1.40;;;20.20;29.00;;;;;;5031528;28;20502;-67
2022/05/28 13:05:38;;;;;;;3.92;1.30;;;20.50;29.50;;;;;;5024858;28;20423;-69
2022/05/28 13:08:10;;;;;;;3.20;1.23;;;20.90;29.40;;;;;;5024994;28;20434;-68
2022/05/28 13:10:37;;;;;;;2.20;1.00;;;21.30;30.40;;;;;;5025275;28;20510;-67